Time,TemperatureF,DewpointF,PressureIn,WindDirection,WindDirectionDegrees,WindSpeedMPH,WindSpeedGustMPH,Humidity,HourlyPrecipIn,Conditions,Clouds,dailyrainin,SoftwareType,DateUTC
2013-01-23 00:02:00,26.0,-99.9,-100.00,North,-999,-999.0,-999.0,-999,0.00,,,0.01,,2013-01-23 07:02:00,
2013-01-23 01:30:00,22.0,-99.9,-100.00,North,-999,-999.0,-999.0,-999,-99.99,,,-99.99,,2013-01-23 08:30:00,
2013-01-23 01:53:00,22.0,-99.9,-100.00,North,-999,-999.0,-999.0,-999,-99.99,,,-99.99,,2013-01-23 08:53:00,
2013-01-23 02:03:00,22.0,-99.9,-100.00,North,-999,-999.0,-999.0,-999,-99.99,,,-99.99,,2013-01-23 09:03:00,
2013-01-23 02:13:00,22.0,-99.9,-100.00,North,-999,-999.0,-999.0,-999,-99.99,,,-99.99,,2013-01-23 09:13:00,
2013-01-23 02:23:00,22.0,-99.9,-100.00,North,-999,-999.0,-999.0,-999,-99.99,,,-99.99,,2013-01-23 09:23:00,
2013-01-23 03:30:00,20.0,-99.9,-100.00,North,-999,-999.0,-999.0,-999,0.01,,,0.01,,2013-01-23 10:30:00,
2013-01-23 03:53:00,20.0,-99.9,-100.00,North,-999,-999.0,-999.0,-999,0.01,,,0.01,,2013-01-23 10:53:00,
2013-01-23 04:03:00,20.0,-99.9,-100.00,North,-999,-999.0,-999.0,-999,0.01,,,0.01,,2013-01-23 11:03:00,
2013-01-23 04:12:00,20.0,-99.9,-100.00,North,-999,-999.0,-999.0,-999,0.01,,,0.01,,2013-01-23 11:12:00,
2013-01-23 04:23:00,20.0,-99.9,-100.00,North,-999,-999.0,-999.0,-999,0.01,,,0.01,,2013-01-23 11:23:00,
2013-01-23 04:30:00,21.0,-99.9,-100.00,North,-999,-999.0,-999.0,-999,-99.99,,,-99.99,,2013-01-23 11:30:00,
2013-01-23 04:53:00,21.0,-99.9,-100.00,North,-999,-999.0,-999.0,-999,-99.99,,,-99.99,,2013-01-23 11:53:00,
2013-01-23 05:04:00,21.0,-99.9,-100.00,North,-999,-999.0,-999.0,-999,-99.99,,,-99.99,,2013-01-23 12:04:00,
2013-01-23 05:13:00,21.0,-99.9,-100.00,North,-999,-999.0,-999.0,-999,-99.99,,,-99.99,,2013-01-23 12:13:00,
2013-01-23 05:23:00,21.0,-99.9,-100.00,North,-999,-999.0,-999.0,-999,-99.99,,,-99.99,,2013-01-23 12:23:00,
2013-01-23 05:30:00,21.0,-99.9,-100.00,North,-999,-999.0,-999.0,-999,0.00,,,-99.99,,2013-01-23 12:30:00,
2013-01-23 05:53:00,21.0,-99.9,-100.00,North,-999,-999.0,-999.0,-999,0.00,,,-99.99,,2013-01-23 12:53:00,
2013-01-23 06:04:00,21.0,-99.9,-100.00,North,-999,-999.0,-999.0,-999,0.00,,,-99.99,,2013-01-23 13:04:00,
2013-01-23 06:13:00,21.0,-99.9,-100.00,North,-999,-999.0,-999.0,-999,0.00,,,-99.99,,2013-01-23 13:13:00,
2013-01-23 06:23:00,21.0,-99.9,-100.00,North,-999,-999.0,-999.0,-999,0.00,,,-99.99,,2013-01-23 13:23:00,
2013-01-23 06:53:00,23.0,-99.9,-100.00,North,-999,-999.0,-999.0,-999,0.00,,,-99.99,,2013-01-23 13:53:00,
2013-01-23 07:04:00,23.0,-99.9,-100.00,North,-999,-999.0,-999.0,-999,0.00,,,-99.99,,2013-01-23 14:04:00,
2013-01-23 07:54:00,24.0,-99.9,-100.00,North,-999,-999.0,-999.0,-999,0.00,,,-99.99,,2013-01-23 14:54:00,
2013-01-23 08:03:00,24.0,-99.9,-100.00,North,-999,-999.0,-999.0,-999,0.00,,,-99.99,,2013-01-23 15:03:00,
2013-01-23 08:30:00,22.0,-99.9,-100.00,North,-999,-999.0,-999.0,-999,0.01,,,-99.99,,2013-01-23 15:30:00,
2013-01-23 08:53:00,22.0,-99.9,-100.00,North,-999,-999.0,-999.0,-999,0.01,,,-99.99,,2013-01-23 15:53:00,
2013-01-23 09:03:00,22.0,-99.9,-100.00,North,-999,-999.0,-999.0,-999,0.01,,,-99.99,,2013-01-23 16:03:00,
2013-01-23 09:13:00,22.0,-99.9,-100.00,North,-999,-999.0,-999.0,-999,0.01,,,-99.99,,2013-01-23 16:13:00,
2013-01-23 09:23:00,22.0,-99.9,-100.00,North,-999,-999.0,-999.0,-999,0.01,,,-99.99,,2013-01-23 16:23:00,
2013-01-23 09:30:00,22.0,-99.9,-100.00,North,-999,-999.0,-999.0,-999,0.00,,,0.01,,2013-01-23 16:30:00,
2013-01-23 10:04:00,22.0,-99.9,-100.00,North,-999,-999.0,-999.0,-999,0.00,,,0.01,,2013-01-23 17:04:00,
2013-01-23 10:30:00,25.0,-99.9,-100.00,North,-999,-999.0,-999.0,-999,0.00,,,0.00,,2013-01-23 17:30:00,
2013-01-23 10:53:00,25.0,-99.9,-100.00,North,-999,-999.0,-999.0,-999,0.00,,,0.00,,2013-01-23 17:53:00,
2013-01-23 11:04:00,25.0,-99.9,-100.00,North,-999,-999.0,-999.0,-999,0.00,,,0.00,,2013-01-23 18:04:00,
2013-01-23 11:13:00,25.0,-99.9,-100.00,North,-999,-999.0,-999.0,-999,0.00,,,0.00,,2013-01-23 18:13:00,
2013-01-23 11:24:00,25.0,-99.9,-100.00,North,-999,-999.0,-999.0,-999,0.00,,,0.00,,2013-01-23 18:24:00,
2013-01-23 11:30:00,26.0,-99.9,-100.00,North,-999,-999.0,-999.0,-999,0.01,,,0.01,,2013-01-23 18:30:00,
2013-01-23 11:53:00,26.0,-99.9,-100.00,North,-999,-999.0,-999.0,-999,0.01,,,0.01,,2013-01-23 18:53:00,
2013-01-23 12:03:00,26.0,-99.9,-100.00,North,-999,-999.0,-999.0,-999,0.01,,,0.01,,2013-01-23 19:03:00,
2013-01-23 12:13:00,26.0,-99.9,-100.00,North,-999,-999.0,-999.0,-999,0.01,,,0.01,,2013-01-23 19:13:00,
2013-01-23 12:23:00,26.0,-99.9,-100.00,North,-999,-999.0,-999.0,-999,0.01,,,0.01,,2013-01-23 19:23:00,
2013-01-23 12:30:00,28.0,-99.9,-100.00,North,-999,-999.0,-999.0,-999,0.00,,,0.01,,2013-01-23 19:30:00,
2013-01-23 12:53:00,28.0,-99.9,-100.00,North,-999,-999.0,-999.0,-999,0.00,,,0.01,,2013-01-23 19:53:00,
2013-01-23 13:03:00,28.0,-99.9,-100.00,North,-999,-999.0,-999.0,-999,0.00,,,0.01,,2013-01-23 20:03:00,
2013-01-23 13:13:00,28.0,-99.9,-100.00,North,-999,-999.0,-999.0,-999,0.00,,,0.01,,2013-01-23 20:13:00,
2013-01-23 13:23:00,28.0,-99.9,-100.00,North,-999,-999.0,-999.0,-999,0.00,,,0.01,,2013-01-23 20:23:00,
2013-01-23 13:30:00,30.0,-99.9,-100.00,North,-999,-999.0,-999.0,-999,0.00,,,0.00,,2013-01-23 20:30:00,
2013-01-23 13:54:00,30.0,-99.9,-100.00,North,-999,-999.0,-999.0,-999,0.00,,,0.00,,2013-01-23 20:54:00,
2013-01-23 14:03:00,30.0,-99.9,-100.00,North,-999,-999.0,-999.0,-999,0.00,,,0.00,,2013-01-23 21:03:00,
2013-01-23 14:12:00,30.0,-99.9,-100.00,North,-999,-999.0,-999.0,-999,0.00,,,0.00,,2013-01-23 21:12:00,
2013-01-23 14:23:00,30.0,-99.9,-100.00,North,-999,-999.0,-999.0,-999,0.00,,,0.00,,2013-01-23 21:23:00,
2013-01-23 14:30:00,31.0,-99.9,-100.00,North,-999,-999.0,-999.0,-999,0.00,,,0.00,,2013-01-23 21:30:00,
2013-01-23 14:53:00,31.0,-99.9,-100.00,North,-999,-999.0,-999.0,-999,0.00,,,0.00,,2013-01-23 21:53:00,
2013-01-23 15:03:00,31.0,-99.9,-100.00,North,-999,-999.0,-999.0,-999,0.00,,,0.00,,2013-01-23 22:03:00,
2013-01-23 15:13:00,31.0,-99.9,-100.00,North,-999,-999.0,-999.0,-999,0.00,,,0.00,,2013-01-23 22:13:00,
2013-01-23 15:23:00,31.0,-99.9,-100.00,North,-999,-999.0,-999.0,-999,0.00,,,0.00,,2013-01-23 22:23:00,
2013-01-23 15:30:00,31.0,-99.9,-100.00,North,-999,-999.0,-999.0,-999,0.00,,,0.00,,2013-01-23 22:30:00,
2013-01-23 15:53:00,31.0,-99.9,-100.00,North,-999,-999.0,-999.0,-999,0.00,,,0.00,,2013-01-23 22:53:00,
2013-01-23 16:03:00,31.0,-99.9,-100.00,North,-999,-999.0,-999.0,-999,0.00,,,0.00,,2013-01-23 23:03:00,
2013-01-23 16:13:00,31.0,-99.9,-100.00,North,-999,-999.0,-999.0,-999,0.00,,,0.00,,2013-01-23 23:13:00,
2013-01-23 16:23:00,31.0,-99.9,-100.00,North,-999,-999.0,-999.0,-999,0.00,,,0.00,,2013-01-23 23:23:00,
2013-01-23 16:30:00,30.0,-99.9,-100.00,North,-999,-999.0,-999.0,-999,-99.99,,,-99.99,,2013-01-23 23:30:00,
2013-01-23 16:53:00,30.0,-99.9,-100.00,North,-999,-999.0,-999.0,-999,-99.99,,,-99.99,,2013-01-23 23:53:00,
2013-01-23 17:03:00,30.0,-99.9,-100.00,North,-999,-999.0,-999.0,-999,-99.99,,,-99.99,,2013-01-24 00:03:00,
2013-01-23 17:12:00,30.0,-99.9,-100.00,North,-999,-999.0,-999.0,-999,-99.99,,,-99.99,,2013-01-24 00:12:00,
2013-01-23 17:23:00,30.0,-99.9,-100.00,North,-999,-999.0,-999.0,-999,-99.99,,,-99.99,,2013-01-24 00:23:00,
2013-01-23 17:30:00,29.0,-99.9,-100.00,North,-999,-999.0,-999.0,-999,0.01,,,0.01,,2013-01-24 00:30:00,
2013-01-23 17:53:00,29.0,-99.9,-100.00,North,-999,-999.0,-999.0,-999,0.01,,,0.01,,2013-01-24 00:53:00,
2013-01-23 18:03:00,29.0,-99.9,-100.00,North,-999,-999.0,-999.0,-999,0.01,,,0.01,,2013-01-24 01:03:00,
2013-01-23 18:13:00,29.0,-99.9,-100.00,North,-999,-999.0,-999.0,-999,0.01,,,0.01,,2013-01-24 01:13:00,
2013-01-23 18:23:00,29.0,-99.9,-100.00,North,-999,-999.0,-999.0,-999,0.01,,,0.01,,2013-01-24 01:23:00,
2013-01-23 18:30:00,29.0,-99.9,-100.00,North,-999,-999.0,-999.0,-999,0.00,,,0.01,,2013-01-24 01:30:00,
2013-01-23 18:53:00,29.0,-99.9,-100.00,North,-999,-999.0,-999.0,-999,0.00,,,0.01,,2013-01-24 01:53:00,
2013-01-23 19:03:00,29.0,-99.9,-100.00,North,-999,-999.0,-999.0,-999,0.00,,,0.01,,2013-01-24 02:03:00,
2013-01-23 19:13:00,29.0,-99.9,-100.00,North,-999,-999.0,-999.0,-999,0.00,,,0.01,,2013-01-24 02:13:00,
2013-01-23 19:23:00,29.0,-99.9,-100.00,North,-999,-999.0,-999.0,-999,0.00,,,0.01,,2013-01-24 02:23:00,
2013-01-23 19:30:00,29.0,-99.9,-100.00,North,-999,-999.0,-999.0,-999,0.00,,,0.00,,2013-01-24 02:30:00,
2013-01-23 20:03:00,29.0,-99.9,-100.00,North,-999,-999.0,-999.0,-999,0.00,,,0.00,,2013-01-24 03:03:00,
2013-01-23 20:12:00,29.0,-99.9,-100.00,North,-999,-999.0,-999.0,-999,0.00,,,0.00,,2013-01-24 03:12:00,
2013-01-23 20:22:00,29.0,-99.9,-100.00,North,-999,-999.0,-999.0,-999,0.00,,,0.00,,2013-01-24 03:22:00,
2013-01-23 20:30:00,29.0,-99.9,-100.00,North,-999,-999.0,-999.0,-999,0.01,,,0.01,,2013-01-24 03:30:00,
2013-01-23 20:53:00,29.0,-99.9,-100.00,North,-999,-999.0,-999.0,-999,0.01,,,0.01,,2013-01-24 03:53:00,
2013-01-23 21:03:00,29.0,-99.9,-100.00,North,-999,-999.0,-999.0,-999,0.01,,,0.01,,2013-01-24 04:03:00,
2013-01-23 21:13:00,29.0,-99.9,-100.00,North,-999,-999.0,-999.0,-999,0.01,,,0.01,,2013-01-24 04:13:00,
2013-01-23 21:22:00,29.0,-99.9,-100.00,North,-999,-999.0,-999.0,-999,0.01,,,0.01,,2013-01-24 04:22:00,
2013-01-23 22:30:00,28.0,-99.9,-100.00,North,-999,-999.0,-999.0,-999,0.10,,,0.10,,2013-01-24 05:30:00,
2013-01-23 23:03:00,28.0,-99.9,-100.00,North,-999,-999.0,-999.0,-999,0.10,,,0.10,,2013-01-24 06:03:00,
2013-01-23 23:12:00,28.0,-99.9,-100.00,North,-999,-999.0,-999.0,-999,0.10,,,0.10,,2013-01-24 06:12:00,
2013-01-23 23:23:00,28.0,-99.9,-100.00,North,-999,-999.0,-999.0,-999,0.10,,,0.10,,2013-01-24 06:23:00,
2013-01-23 23:30:00,29.0,-99.9,-100.00,North,-999,-999.0,-999.0,-999,0.11,,,0.21,,2013-01-24 06:30:00,
2013-01-23 23:53:00,29.0,-99.9,-100.00,North,-999,-999.0,-999.0,-999,0.11,,,0.21,,2013-01-24 06:53:00,